Time;durP1;ratioP1;P1;durP2;ratioP2;P2;SDS_P1;SDS_P2;PMS_P1;PMS_P2;Temp;Humidity;BMP_temperature;BMP_pressure;BME280_temperature;BME280_humidity;BME280_pressure;Samples;Min_cycle;Max_cycle;Signal;HPM_P1;HPM_P2
2021/07/08 00:02:08;;;;;;;14.90;1.82;;;;;;;18.85;73.76;100279.58;1720170;80;21048;-56
2021/07/08 00:04:37;;;;;;;12.18;1.32;;;;;;;18.84;73.75;100288.25;1719845;80;21060;-56
2021/07/08 00:07:05;;;;;;;3.80;1.00;;;;;;;18.81;73.73;100287.59;1719102;80;21045;-56
2021/07/08 00:09:31;;;;;;;3.92;1.00;;;;;;;18.79;73.87;100287.73;1714790;80;21607;-56
2021/07/08 00:11:59;;;;;;;9.45;1.52;;;;;;;18.77;73.86;100285.61;1714932;80;21081;-56
2021/07/08 00:14:26;;;;;;;5.67;1.00;;;;;;;18.76;73.92;100289.31;1716192;80;21089;-56
2021/07/08 00:16:53;;;;;;;3.47;0.90;;;;;;;18.76;73.97;100288.44;1716422;80;21115;-56
2021/07/08 00:19:20;;;;;;;6.90;0.90;;;;;;;18.76;73.87;100284.35;1718263;80;22041;-56
2021/07/08 00:21:47;;;;;;;8.98;1.22;;;;;;;18.75;73.79;100290.30;1712321;80;21521;-56
2021/07/08 00:24:14;;;;;;;4.35;1.00;;;;;;;18.73;73.77;100285.44;1713712;80;21269;-56
2021/07/08 00:26:41;;;;;;;3.27;0.95;;;;;;;18.73;73.75;100291.38;1712719;80;21475;-56
2021/07/08 00:29:07;;;;;;;3.90;0.80;;;;;;;18.70;73.78;100285.69;1714678;80;21050;-56
2021/07/08 00:31:34;;;;;;;2.80;0.90;;;;;;;18.69;73.85;100285.30;1715352;80;21113;-56
2021/07/08 00:34:01;;;;;;;5.60;1.10;;;;;;;18.68;73.82;100288.13;1714347;80;21030;-56
2021/07/08 00:36:31;;;;;;;3.37;0.90;;;;;;;18.67;73.90;100287.75;1719221;80;21108;-55
2021/07/08 00:38:57;;;;;;;1.85;0.82;;;;;;;18.66;73.98;100290.09;1701603;80;21073;-56
2021/07/08 00:41:24;;;;;;;6.37;1.10;;;;;;;18.66;74.01;100286.00;1714617;80;21440;-56
2021/07/08 00:43:52;;;;;;;2.92;1.20;;;;;;;18.66;74.05;100286.00;1711974;81;21657;-56
2021/07/08 00:46:20;;;;;;;5.47;1.10;;;;;;;18.65;74.06;100289.22;1713199;80;21153;-56
2021/07/08 00:48:47;;;;;;;4.25;1.20;;;;;;;18.65;74.11;100278.80;1712838;80;21100;-56
2021/07/08 00:51:14;;;;;;;4.20;1.42;;;;;;;18.63;74.09;100283.00;1711584;82;21112;-55
2021/07/08 00:53:40;;;;;;;3.92;0.93;;;;;;;18.59;74.20;100275.17;1713039;80;21437;-56
2021/07/08 00:56:06;;;;;;;4.80;0.95;;;;;;;18.59;74.23;100281.98;1713700;80;21664;-56
2021/07/08 00:58:32;;;;;;;2.45;1.00;;;;;;;18.58;74.25;100277.52;1712966;80;21074;-56
2021/07/08 01:00:59;;;;;;;2.47;1.00;;;;;;;18.56;74.21;100282.17;1712745;80;21121;-56
2021/07/08 01:03:25;;;;;;;5.45;1.15;;;;;;;18.55;74.24;100281.30;1715903;80;21017;-55
2021/07/08 01:05:53;;;;;;;2.33;1.05;;;;;;;18.54;74.29;100288.59;1713823;80;21347;-56
2021/07/08 01:08:21;;;;;;;2.17;1.22;;;;;;;18.54;74.34;100283.67;1717632;80;21072;-55
2021/07/08 01:10:52;;;;;;;2.58;1.20;;;;;;;18.54;74.36;100288.59;1720324;80;21037;-56
2021/07/08 01:13:19;;;;;;;1.80;1.10;;;;;;;18.53;74.41;100286.01;1719295;80;21100;-56
2021/07/08 01:15:46;;;;;;;8.53;1.30;;;;;;;18.52;74.58;100289.72;1716900;80;21048;-55
2021/07/08 01:18:12;;;;;;;4.08;1.30;;;;;;;18.49;74.54;100285.84;1720319;80;21116;-56
2021/07/08 01:20:39;;;;;;;4.65;1.00;;;;;;;18.46;74.55;100284.20;1720318;80;21796;-56
2021/07/08 01:23:06;;;;;;;1.70;1.00;;;;;;;18.45;74.66;100291.14;1717994;80;21090;-56
2021/07/08 01:25:36;;;;;;;2.52;0.90;;;;;;;18.41;74.77;100287.75;1717738;80;21065;-56
2021/07/08 01:28:05;;;;;;;4.25;1.12;;;;;;;18.39;74.77;100291.08;1718684;80;21045;-56
2021/07/08 01:30:31;;;;;;;4.03;1.10;;;;;;;18.39;74.71;100298.37;1717305;80;21046;-56
2021/07/08 01:32:58;;;;;;;2.65;1.10;;;;;;;18.37;74.73;100297.13;1718783;80;21122;-56
2021/07/08 01:35:25;;;;;;;1.52;0.80;;;;;;;18.36;74.80;100299.98;1723438;80;20963;-55
2021/07/08 01:37:51;;;;;;;4.62;1.20;;;;;;;18.36;74.95;100304.95;1724340;80;20914;-56
2021/07/08 01:40:18;;;;;;;3.45;1.20;;;;;;;18.37;74.92;100304.45;1725188;80;20914;-55
2021/07/08 01:42:44;;;;;;;4.47;1.00;;;;;;;18.37;74.97;100307.19;1724099;80;20930;-55
2021/07/08 01:45:14;;;;;;;6.15;0.93;;;;;;;18.35;74.99;100300.96;1724618;80;21727;-56
2021/07/08 01:47:42;;;;;;;3.70;1.37;;;;;;;18.33;74.90;100306.52;1726391;80;20910;-55
2021/07/08 01:50:15;;;;;;;10.23;1.12;;;;;;;18.31;74.86;100302.14;1722930;80;21556;-55
2021/07/08 01:52:42;;;;;;;3.35;0.80;;;;;;;18.28;75.00;100302.39;1713061;80;20885;-56
2021/07/08 01:55:10;;;;;;;4.35;0.88;;;;;;;18.26;75.09;100300.25;1724643;80;20891;-55
2021/07/08 01:57:42;;;;;;;4.22;0.70;;;;;;;18.25;75.07;100303.47;1723436;80;21686;-55
2021/07/08 02:00:12;;;;;;;6.40;1.07;;;;;;;18.25;75.03;100303.95;1723495;80;21390;-60
2021/07/08 02:02:39;;;;;;;5.12;1.00;;;;;;;18.24;75.04;100303.08;1723536;80;21477;-56
2021/07/08 02:05:05;;;;;;;3.02;1.02;;;;;;;18.24;75.04;100307.17;1725603;80;21581;-56
2021/07/08 02:07:33;;;;;;;5.58;1.00;;;;;;;18.24;75.16;100307.17;1722005;80;20911;-59
2021/07/08 02:09:59;;;;;;;2.77;1.00;;;;;;;18.26;75.17;100305.70;1718131;80;21038;-56
2021/07/08 02:12:25;;;;;;;2.00;0.90;;;;;;;18.26;75.20;100305.70;1713328;81;20904;-59
2021/07/08 02:14:52;;;;;;;4.87;1.02;;;;;;;18.27;75.21;100304.73;1711814;81;20990;-60
2021/07/08 02:17:18;;;;;;;1.25;1.05;;;;;;;18.29;75.33;100301.41;1710019;81;21021;-61
2021/07/08 02:19:44;;;;;;;2.50;0.93;;;;;;;18.28;75.37;100304.63;1708897;81;22540;-58
2021/07/08 02:22:11;;;;;;;1.72;0.85;;;;;;;18.31;75.38;100316.64;1705360;81;21766;-57
2021/07/08 02:24:37;;;;;;;6.28;0.80;;;;;;;18.32;75.34;100314.80;1705719;81;21090;-59
2021/07/08 02:27:04;;;;;;;7.30;1.00;;;;;;;18.35;75.39;100314.09;1708308;81;21082;-60
2021/07/08 02:29:32;;;;;;;4.75;1.27;;;;;;;18.38;75.50;100315.71;1712939;81;21540;-58
2021/07/08 02:31:59;;;;;;;3.30;1.00;;;;;;;18.41;75.52;100315.50;1708759;81;22399;-59
2021/07/08 02:34:25;;;;;;;3.10;1.40;;;;;;;18.44;75.50;100316.17;1704719;81;21695;-60
2021/07/08 02:36:52;;;;;;;6.70;1.45;;;;;;;18.47;75.55;100316.41;1703291;81;21122;-56
2021/07/08 02:39:18;;;;;;;3.22;1.25;;;;;;;18.49;75.60;100318.06;1702535;81;21118;-59
2021/07/08 02:41:44;;;;;;;4.65;1.32;;;;;;;18.51;75.67;100320.19;1706855;81;21125;-60
2021/07/08 02:44:11;;;;;;;3.77;1.20;;;;;;;18.51;75.73;100317.47;1709340;81;21665;-59
2021/07/08 02:46:37;;;;;;;3.62;1.40;;;;;;;18.53;75.79;100320.09;1706291;81;21699;-57
2021/07/08 02:49:04;;;;;;;5.45;1.10;;;;;;;18.54;75.92;100320.47;1707118;81;21042;-59
2021/07/08 02:51:30;;;;;;;1.95;0.90;;;;;;;18.57;75.99;100328.93;1705934;81;21042;-59
2021/07/08 02:53:56;;;;;;;3.90;0.90;;;;;;;18.59;76.13;100319.67;1705103;81;21347;-60
2021/07/08 02:56:22;;;;;;;3.17;1.00;;;;;;;18.64;76.27;100322.92;1706391;81;21046;-59
2021/07/08 02:58:49;;;;;;;5.53;1.05;;;;;;;18.69;76.39;100321.24;1705223;81;21116;-57
2021/07/08 03:01:15;;;;;;;3.05;1.00;;;;;;;18.75;76.45;100321.66;1707824;81;21026;-60
2021/07/08 03:03:41;;;;;;;5.58;1.10;;;;;;;18.82;76.46;100324.80;1708788;81;21779;-57
2021/07/08 03:06:08;;;;;;;5.70;1.07;;;;;;;18.84;76.52;100319.63;1705286;81;21111;-60
2021/07/08 03:08:34;;;;;;;1.95;1.80;;;;;;;18.86;76.61;100321.75;1705030;81;21062;-60
2021/07/08 03:11:02;;;;;;;5.55;1.12;;;;;;;18.89;76.75;100324.72;1714648;80;21590;-56
2021/07/08 03:13:30;;;;;;;5.62;1.20;;;;;;;18.93;76.89;100329.48;1723484;80;21026;-60
2021/07/08 03:15:57;;;;;;;3.00;0.88;;;;;;;18.96;76.99;100329.27;1723042;80;22334;-55
2021/07/08 03:18:25;;;;;;;4.08;0.85;;;;;;;18.99;77.08;100326.28;1720511;80;21448;-55
2021/07/08 03:20:51;;;;;;;8.18;1.00;;;;;;;19.02;77.27;100328.80;1722024;80;21510;-60
2021/07/08 03:23:18;;;;;;;2.60;1.10;;;;;;;19.08;77.49;100332.43;1720832;80;21062;-56
2021/07/08 03:25:44;;;;;;;5.20;0.90;;;;;;;19.14;77.63;100335.56;1720436;80;21269;-56
2021/07/08 03:28:10;;;;;;;1.40;1.12;;;;;;;19.20;77.82;100339.23;1720259;80;21508;-60
2021/07/08 03:30:37;;;;;;;1.92;0.88;;;;;;;19.30;78.09;100338.05;1717848;80;21085;-57
2021/07/08 03:33:04;;;;;;;6.78;1.00;;;;;;;19.38;78.21;100334.73;1719666;80;21089;-58
2021/07/08 03:35:30;;;;;;;4.00;1.20;;;;;;;19.45;78.26;100337.38;1720070;80;21122;-58
2021/07/08 03:37:58;;;;;;;2.12;1.05;;;;;;;19.53;78.18;100343.16;1720909;80;21109;-60
2021/07/08 03:40:27;;;;;;;4.37;0.90;;;;;;;19.62;78.21;100342.47;1718607;80;21155;-58
2021/07/08 03:42:53;;;;;;;2.75;1.00;;;;;;;19.71;77.90;100340.39;1719810;80;21105;-59
2021/07/08 03:45:23;;;;;;;1.20;0.90;;;;;;;19.82;77.50;100337.69;1717220;80;21144;-58
2021/07/08 03:47:52;;;;;;;5.58;0.90;;;;;;;19.94;77.00;100340.85;1715868;80;21065;-58
2021/07/08 03:50:18;;;;;;;2.87;0.90;;;;;;;20.05;76.49;100340.02;1718442;80;21113;-57
2021/07/08 03:52:45;;;;;;;1.10;0.80;;;;;;;20.17;76.00;100335.44;1719093;80;21060;-59
2021/07/08 03:55:15;;;;;;;1.50;0.90;;;;;;;20.30;75.58;100342.56;1718800;80;21054;-59
2021/07/08 03:57:52;;;;;;;1.12;0.88;;;;;;;20.42;75.04;100345.33;1719638;80;21105;-59
2021/07/08 04:00:11;;;;;;;3.83;0.80;;;;;;;20.56;74.63;100347.85;1718113;80;21714;-59
2021/07/08 04:02:38;;;;;;;4.58;0.90;;;;;;;20.67;74.19;100349.23;1720422;80;21066;-57
2021/07/08 04:05:06;;;;;;;2.77;1.82;;;;;;;20.78;73.74;100346.48;1718864;80;21084;-58
2021/07/08 04:07:36;;;;;;;3.35;1.10;;;;;;;20.87;73.38;100347.11;1723203;80;20914;-58
2021/07/08 04:10:04;;;;;;;1.50;1.05;;;;;;;20.99;72.82;100350.22;1717471;80;21444;-56
2021/07/08 04:12:30;;;;;;;4.53;0.98;;;;;;;21.08;72.48;100348.10;1709329;81;21164;-56
2021/07/08 04:14:56;;;;;;;1.07;0.90;;;;;;;21.17;72.12;100347.88;1709997;81;21099;-60
2021/07/08 04:17:24;;;;;;;2.25;0.82;;;;;;;21.25;71.65;100352.22;1709468;81;21049;-57
2021/07/08 04:19:51;;;;;;;5.28;1.17;;;;;;;21.34;71.54;100356.05;1711491;81;21049;-63
2021/07/08 04:22:18;;;;;;;3.27;1.10;;;;;;;21.42;71.26;100348.06;1704948;81;21074;-56
2021/07/08 04:24:44;;;;;;;2.37;1.00;;;;;;;21.52;70.65;100358.63;1705314;81;22367;-57
2021/07/08 04:27:12;;;;;;;5.15;1.00;;;;;;;21.61;70.20;100356.45;1702888;81;21129;-57
2021/07/08 04:29:39;;;;;;;1.12;1.00;;;;;;;21.70;69.99;100355.67;1705527;81;22681;-56
2021/07/08 04:32:07;;;;;;;3.12;1.10;;;;;;;21.75;69.66;100356.17;1706203;81;21074;-60
2021/07/08 04:34:33;;;;;;;1.52;0.90;;;;;;;21.83;69.73;100358.26;1710976;81;20943;-55
2021/07/08 04:37:01;;;;;;;1.50;0.95;;;;;;;21.89;69.94;100357.73;1713017;81;21124;-55
2021/07/08 04:39:27;;;;;;;2.52;1.52;;;;;;;21.96;70.12;100360.80;1710720;81;20983;-58
2021/07/08 04:41:54;;;;;;;3.67;1.40;;;;;;;22.03;69.64;100366.19;1710337;81;20951;-58
2021/07/08 04:44:20;;;;;;;5.87;1.02;;;;;;;22.10;69.48;100367.39;1710153;81;20915;-62
2021/07/08 04:46:47;;;;;;;0.90;0.90;;;;;;;22.17;69.07;100376.32;1712069;81;21042;-64
2021/07/08 04:49:13;;;;;;;4.05;0.93;;;;;;;22.25;68.79;100372.91;1710909;81;21842;-62
2021/07/08 04:51:40;;;;;;;5.67;1.20;;;;;;;22.34;68.58;100375.36;1710016;81;21347;-60
2021/07/08 04:54:06;;;;;;;1.17;1.00;;;;;;;22.41;68.17;100378.80;1711350;81;21531;-59
2021/07/08 04:56:32;;;;;;;2.65;1.20;;;;;;;22.47;68.17;100380.99;1709306;81;20978;-57
2021/07/08 04:58:59;;;;;;;3.42;0.95;;;;;;;22.54;68.16;100384.93;1707016;81;20970;-60
2021/07/08 05:01:25;;;;;;;5.30;1.20;;;;;;;22.62;68.16;100386.53;1708207;81;21090;-60
2021/07/08 05:03:58;;;;;;;2.70;0.88;;;;;;;22.69;68.06;100385.98;1707501;81;20975;-58
2021/07/08 05:06:22;;;;;;;4.40;1.02;;;;;;;22.77;68.18;100388.44;1710124;81;20947;-60
2021/07/08 05:08:48;;;;;;;2.45;0.90;;;;;;;22.86;68.17;100391.74;1712226;81;20986;-58
2021/07/08 05:11:16;;;;;;;1.22;1.00;;;;;;;22.96;67.83;100391.29;1714827;80;20943;-56
2021/07/08 05:13:42;;;;;;;1.55;1.20;;;;;;;23.06;67.50;100394.55;1722285;80;21766;-56
2021/07/08 05:16:08;;;;;;;6.33;1.25;;;;;;;23.17;67.26;100395.84;1720509;80;21564;-60
2021/07/08 05:18:35;;;;;;;3.37;1.00;;;;;;;23.27;67.04;100398.98;1724225;80;22192;-60
2021/07/08 05:21:02;;;;;;;2.42;1.05;;;;;;;23.38;66.94;100398.02;1722981;80;21160;-57
2021/07/08 05:23:30;;;;;;;3.67;0.90;;;;;;;23.44;66.50;100400.20;1719505;80;21124;-58
2021/07/08 05:25:57;;;;;;;3.37;1.02;;;;;;;23.53;66.42;100403.52;1719742;80;21534;-56
2021/07/08 05:28:23;;;;;;;3.87;0.90;;;;;;;23.60;66.19;100399.19;1724658;80;21555;-60
2021/07/08 05:30:50;;;;;;;3.22;0.80;;;;;;;23.71;65.76;100405.07;1727227;80;20911;-61
2021/07/08 05:33:16;;;;;;;3.10;0.85;;;;;;;23.81;65.12;100408.71;1724230;80;21073;-57
2021/07/08 05:35:43;;;;;;;2.90;1.20;;;;;;;23.90;64.74;100409.73;1716519;80;21429;-57
2021/07/08 05:38:09;;;;;;;3.15;1.15;;;;;;;24.00;64.55;100411.45;1693386;81;21093;-60
2021/07/08 05:40:37;;;;;;;2.75;1.00;;;;;;;24.09;64.02;100413.84;1720076;80;21069;-64
2021/07/08 05:43:05;;;;;;;7.20;0.90;;;;;;;24.19;63.86;100408.35;1720219;80;21068;-62
2021/07/08 05:45:33;;;;;;;1.50;0.93;;;;;;;24.25;63.34;100411.92;1723192;80;21030;-57
2021/07/08 05:47:59;;;;;;;1.70;0.80;;;;;;;24.31;62.88;100408.61;1723826;80;21080;-58
2021/07/08 05:50:26;;;;;;;2.33;0.80;;;;;;;24.38;62.73;100413.89;1723097;80;22022;-57
2021/07/08 05:52:52;;;;;;;1.35;0.90;;;;;;;24.43;62.58;100411.55;1723310;80;21073;-59
2021/07/08 05:55:18;;;;;;;1.00;0.90;;;;;;;24.50;62.59;100409.94;1719219;80;21088;-59
2021/07/08 05:57:48;;;;;;;4.97;0.80;;;;;;;24.56;62.34;100411.26;1724279;80;21058;-56
2021/07/08 06:00:16;;;;;;;3.87;0.80;;;;;;;24.62;62.25;100412.91;1720479;80;21710;-62
2021/07/08 06:02:43;;;;;;;8.80;0.90;;;;;;;24.70;61.77;100408.91;1725599;80;21088;-56
2021/07/08 06:05:10;;;;;;;1.65;0.90;;;;;;;24.79;62.13;100407.14;1721755;80;21092;-60
2021/07/08 06:07:36;;;;;;;2.98;0.80;;;;;;;24.88;61.36;100415.38;1723600;80;21133;-63
2021/07/08 06:10:05;;;;;;;1.32;1.00;;;;;;;24.98;60.66;100415.89;1724427;80;21243;-57
2021/07/08 06:12:33;;;;;;;2.90;0.80;;;;;;;25.05;60.03;100412.89;1711882;81;20933;-61
2021/07/08 06:15:00;;;;;;;2.65;0.80;;;;;;;25.12;60.55;100410.76;1709985;81;22149;-62
2021/07/08 06:17:26;;;;;;;2.55;0.82;;;;;;;25.18;59.63;100412.03;1734062;80;21449;-64
2021/07/08 06:19:53;;;;;;;2.55;0.85;;;;;;;25.26;59.67;100410.79;1734751;80;21568;-59
2021/07/08 06:22:19;;;;;;;4.62;1.10;;;;;;;25.34;60.09;100411.41;1734993;80;22425;-61
2021/07/08 06:24:45;;;;;;;1.00;0.70;;;;;;;25.39;59.06;100412.67;1733373;80;21163;-58
2021/07/08 06:27:12;;;;;;;6.17;0.80;;;;;;;25.47;58.65;100419.66;1734293;80;21113;-57
2021/07/08 06:29:38;;;;;;;2.70;0.80;;;;;;;25.54;57.66;100426.29;1729241;80;21053;-57
2021/07/08 06:32:05;;;;;;;2.15;0.60;;;;;;;25.62;57.21;100425.55;1725693;80;21179;-57
2021/07/08 06:34:32;;;;;;;2.20;0.70;;;;;;;25.69;57.25;100428.59;1734295;80;20950;-58
2021/07/08 06:36:58;;;;;;;0.80;0.70;;;;;;;25.76;57.35;100423.67;1730858;80;21354;-59
2021/07/08 06:39:24;;;;;;;1.82;1.00;;;;;;;25.83;56.99;100429.42;1730038;80;21361;-61
2021/07/08 06:41:51;;;;;;;1.02;0.70;;;;;;;25.89;56.97;100430.17;1730882;80;21105;-60
2021/07/08 06:44:18;;;;;;;3.17;1.57;;;;;;;25.97;56.52;100430.27;1728192;80;21463;-60
2021/07/08 06:46:50;;;;;;;1.87;0.80;;;;;;;26.03;55.71;100428.25;1729673;80;21081;-58
2021/07/08 06:49:12;;;;;;;1.67;0.60;;;;;;;26.10;55.14;100431.27;1729102;80;21556;-58
2021/07/08 06:51:40;;;;;;;1.40;0.70;;;;;;;26.15;55.17;100428.89;1729983;80;22233;-58
2021/07/08 06:54:06;;;;;;;2.35;0.88;;;;;;;26.22;55.03;100435.52;1729776;80;21527;-56
2021/07/08 06:56:33;;;;;;;1.52;0.70;;;;;;;26.28;55.21;100433.05;1730785;80;21458;-58
2021/07/08 06:58:59;;;;;;;1.80;0.70;;;;;;;26.35;55.24;100438.28;1731710;80;21169;-59
2021/07/08 07:01:25;;;;;;;2.25;0.70;;;;;;;26.42;54.92;100434.37;1728718;80;21096;-58
2021/07/08 07:03:51;;;;;;;4.53;0.70;;;;;;;26.48;54.29;100435.10;1728590;80;21526;-58
2021/07/08 07:06:18;;;;;;;5.25;0.72;;;;;;;26.55;54.22;100439.46;1731292;80;21065;-57
2021/07/08 07:08:46;;;;;;;0.68;0.60;;;;;;;26.62;54.42;100432.30;1705852;80;21080;-57
2021/07/08 07:11:12;;;;;;;3.42;0.68;;;;;;;26.68;54.73;100435.28;1723219;80;22830;-57
2021/07/08 07:13:39;;;;;;;0.80;0.70;;;;;;;26.77;54.62;100436.20;1706807;81;21690;-59
2021/07/08 07:16:05;;;;;;;2.85;1.00;;;;;;;26.85;52.88;100435.40;1707878;81;21089;-58
2021/07/08 07:18:32;;;;;;;3.12;0.62;;;;;;;26.92;53.31;100436.00;1702570;81;21137;-59
2021/07/08 07:20:58;;;;;;;0.68;0.60;;;;;;;27.00;52.97;100440.70;1705837;81;21081;-59
2021/07/08 07:23:24;;;;;;;0.70;0.65;;;;;;;27.06;52.72;100435.91;1707637;81;21077;-59
2021/07/08 07:25:51;;;;;;;1.22;0.50;;;;;;;27.14;51.28;100448.38;1707680;81;21093;-59
2021/07/08 07:28:17;;;;;;;1.70;0.70;;;;;;;27.20;50.56;100449.13;1704841;81;21102;-58
2021/07/08 07:30:44;;;;;;;2.42;0.60;;;;;;;27.26;50.86;100444.33;1707377;81;21061;-58
2021/07/08 07:33:10;;;;;;;2.15;0.65;;;;;;;27.34;51.07;100451.79;1704861;81;21674;-59
2021/07/08 07:35:36;;;;;;;0.85;0.70;;;;;;;27.40;51.26;100445.08;1707379;81;21573;-59
2021/07/08 07:38:07;;;;;;;2.15;0.62;;;;;;;27.47;50.43;100454.98;1707307;81;21544;-58
2021/07/08 07:40:31;;;;;;;2.42;0.70;;;;;;;27.52;50.21;100451.20;1708359;81;21089;-60
2021/07/08 07:42:58;;;;;;;0.68;0.60;;;;;;;27.60;50.60;100453.16;1703287;81;21085;-57
2021/07/08 07:45:24;;;;;;;2.15;0.57;;;;;;;27.66;50.44;100458.02;1704872;81;21089;-57
2021/07/08 07:47:52;;;;;;;0.60;0.60;;;;;;;27.73;49.86;100453.57;1707186;81;21092;-59
2021/07/08 07:50:20;;;;;;;2.70;0.70;;;;;;;27.79;49.06;100457.05;1704581;81;21122;-61
2021/07/08 07:52:46;;;;;;;1.37;0.70;;;;;;;27.86;49.41;100459.48;1708275;81;22110;-61
2021/07/08 07:55:13;;;;;;;3.60;0.60;;;;;;;27.93;49.08;100458.28;1706734;81;21098;-60
2021/07/08 07:57:41;;;;;;;1.70;0.60;;;;;;;28.00;48.83;100457.44;1706418;81;21521;-63
2021/07/08 08:00:08;;;;;;;2.22;0.60;;;;;;;28.07;48.79;100465.41;1712980;81;20935;-59
2021/07/08 08:02:38;;;;;;;3.50;0.72;;;;;;;28.12;47.01;100463.53;1714371;81;20927;-63
2021/07/08 08:05:19;;;;;;;1.00;0.70;;;;;;;28.17;47.74;100466.16;1708171;81;21707;-61
2021/07/08 08:10:20;;;;;;;2.75;0.60;;;;;;;28.32;48.28;100459.98;1708662;81;21061;-58
2021/07/08 08:12:47;;;;;;;2.33;0.60;;;;;;;28.41;48.11;100456.19;1709340;81;21095;-58
2021/07/08 08:15:15;;;;;;;1.42;0.60;;;;;;;28.47;48.16;100464.66;1708238;81;21073;-60
2021/07/08 08:17:41;;;;;;;1.12;0.93;;;;;;;28.51;47.85;100463.78;1707998;81;21217;-60
2021/07/08 08:20:10;;;;;;;1.17;0.65;;;;;;;28.58;47.53;100464.30;1715951;81;21058;-59
2021/07/08 08:22:38;;;;;;;6.10;0.60;;;;;;;28.63;47.01;100461.55;1715821;81;21365;-59
2021/07/08 08:26:28;;;;;;;1.02;0.80;;;;;;;28.78;45.98;100454.30;1794943;78;22747;-59
2021/07/08 08:28:54;;;;;;;1.87;0.70;;;;;;;28.76;45.08;100464.16;1763522;78;21622;-60
2021/07/08 08:31:21;;;;;;;0.90;0.62;;;;;;;28.79;46.03;100461.05;1764309;79;21225;-58
2021/07/08 08:33:47;;;;;;;1.05;0.60;;;;;;;28.86;46.85;100469.02;1763487;79;21100;-58
2021/07/08 08:36:14;;;;;;;1.37;0.70;;;;;;;28.94;46.77;100472.29;1708232;82;21144;-61
2021/07/08 08:38:42;;;;;;;3.35;0.70;;;;;;;29.05;46.96;100473.33;1733859;81;21424;-59
2021/07/08 08:41:08;;;;;;;2.45;0.70;;;;;;;29.13;46.42;100467.77;1720447;81;21038;-58
2021/07/08 08:43:36;;;;;;;2.00;1.05;;;;;;;29.19;45.58;100463.41;1702941;81;21156;-63
2021/07/08 08:46:03;;;;;;;4.67;0.88;;;;;;;29.22;45.01;100470.87;1706300;81;21141;-63
2021/07/08 08:48:29;;;;;;;11.93;1.45;;;;;;;29.25;44.61;100468.27;1709698;81;21139;-60
2021/07/08 08:50:55;;;;;;;11.55;0.95;;;;;;;29.22;44.80;100464.45;1704012;81;21065;-56
2021/07/08 08:53:22;;;;;;;3.83;0.90;;;;;;;29.22;45.09;100466.71;1706135;81;21101;-60
2021/07/08 08:55:48;;;;;;;1.07;0.70;;;;;;;29.23;44.57;100469.83;1705331;81;21563;-56
2021/07/08 08:58:18;;;;;;;1.12;0.80;;;;;;;29.26;44.54;100468.07;1703583;81;21543;-58
2021/07/08 09:00:47;;;;;;;1.27;0.70;;;;;;;29.31;44.05;100462.02;1706903;81;21107;-61
2021/07/08 09:03:23;;;;;;;5.67;0.80;;;;;;;29.23;44.63;100462.03;1707223;81;21481;-58
2021/07/08 09:06:06;;;;;;;4.85;0.90;;;;;;;29.19;44.28;100458.73;1704249;81;20993;-57
2021/07/08 09:08:35;;;;;;;2.98;0.75;;;;;;;29.16;44.69;100461.88;1701892;81;21771;-56
2021/07/08 09:11:14;;;;;;;4.50;0.70;;;;;;;29.12;44.37;100461.88;1679481;82;21144;-59
2021/07/08 09:14:01;;;;;;;1.65;0.70;;;;;;;29.09;43.47;100457.23;1709819;81;21149;-62
2021/07/08 09:16:34;;;;;;;2.17;0.70;;;;;;;29.10;43.62;100468.63;1708133;81;21080;-60
2021/07/08 09:19:19;;;;;;;2.65;0.75;;;;;;;29.13;43.07;100461.36;1710127;81;21094;-59
2021/07/08 09:21:52;;;;;;;4.20;0.72;;;;;;;29.17;42.62;100462.75;1712681;81;21594;-58
2021/07/08 09:24:32;;;;;;;1.27;0.60;;;;;;;29.18;43.09;100461.16;1714273;81;20938;-58
2021/07/08 09:27:10;;;;;;;2.85;0.60;;;;;;;29.24;41.10;100459.09;1710851;81;21648;-57
2021/07/08 09:29:45;;;;;;;3.55;0.55;;;;;;;29.32;40.78;100464.61;1711484;81;20977;-58
2021/07/08 09:32:16;;;;;;;4.65;0.60;;;;;;;29.42;39.68;100466.36;1710504;81;21080;-61
2021/07/08 09:34:50;;;;;;;1.17;0.60;;;;;;;29.47;39.88;100464.77;1709914;81;22370;-57
2021/07/08 09:37:23;;;;;;;1.35;0.50;;;;;;;29.55;39.18;100461.96;1709015;81;21089;-58
2021/07/08 09:40:02;;;;;;;22.45;1.30;;;;;;;29.59;39.10;100469.42;1710530;81;20969;-60
2021/07/08 09:42:41;;;;;;;2.90;0.60;;;;;;;29.63;39.70;100463.84;1703817;81;21124;-61
2021/07/08 09:45:12;;;;;;;1.92;0.60;;;;;;;29.73;40.13;100461.72;1704902;81;21045;-58
2021/07/08 09:47:43;;;;;;;0.70;0.60;;;;;;;29.83;38.88;100451.79;1707233;81;21183;-60
2021/07/08 09:50:12;;;;;;;3.33;0.57;;;;;;;29.92;39.82;100453.48;1700724;81;21156;-60
2021/07/08 09:52:39;;;;;;;1.47;0.82;;;;;;;29.99;39.70;100460.92;1707716;81;21837;-59
2021/07/08 09:55:20;;;;;;;1.17;0.50;;;;;;;30.09;39.86;100450.47;1707568;81;22430;-58
2021/07/08 09:57:47;;;;;;;0.72;0.53;;;;;;;30.13;38.70;100450.94;1706502;81;21091;-57
2021/07/08 10:00:25;;;;;;;2.95;0.50;;;;;;;30.19;38.61;100454.92;1704336;81;22171;-56
2021/07/08 10:02:54;;;;;;;1.60;0.50;;;;;;;30.22;39.25;100451.75;1707162;81;21170;-58
2021/07/08 10:05:21;;;;;;;2.27;0.50;;;;;;;30.26;39.25;100451.74;1708454;81;21108;-57
2021/07/08 10:07:49;;;;;;;0.55;0.50;;;;;;;30.30;37.49;100447.53;1706389;81;21689;-58
2021/07/08 10:10:17;;;;;;;2.37;0.50;;;;;;;30.29;38.61;100442.50;1705748;81;21109;-58
2021/07/08 10:12:46;;;;;;;2.22;0.60;;;;;;;30.33;38.42;100440.23;1707142;81;21404;-59
2021/07/08 10:15:13;;;;;;;0.95;0.60;;;;;;;30.37;39.67;100435.50;1708903;81;20934;-58
2021/07/08 10:17:41;;;;;;;1.15;0.60;;;;;;;30.44;39.49;100431.48;1707954;81;20982;-57
2021/07/08 10:20:12;;;;;;;0.90;0.60;;;;;;;30.47;39.24;100432.47;1712065;81;20902;-61
2021/07/08 10:22:38;;;;;;;2.77;0.50;;;;;;;30.47;38.85;100439.42;1710247;81;20994;-60
2021/07/08 10:25:06;;;;;;;2.45;0.75;;;;;;;30.41;38.85;100435.48;1707563;81;21115;-60
2021/07/08 10:27:32;;;;;;;7.35;0.70;;;;;;;30.39;39.30;100435.31;1682522;82;21890;-64
2021/07/08 10:29:59;;;;;;;0.60;0.60;;;;;;;30.37;39.47;100438.80;1680236;82;21450;-61
2021/07/08 10:32:26;;;;;;;2.58;0.98;;;;;;;30.35;38.84;100433.45;1680814;82;21476;-62
2021/07/08 10:34:53;;;;;;;7.53;0.70;;;;;;;30.38;38.92;100430.80;1682781;82;21430;-61
2021/07/08 10:37:36;;;;;;;2.10;0.60;;;;;;;30.38;39.72;100438.61;1680998;82;21406;-60
2021/07/08 10:40:07;;;;;;;3.75;0.60;;;;;;;30.37;39.00;100430.47;1682098;82;21066;-63
2021/07/08 10:42:46;;;;;;;6.12;0.98;;;;;;;30.37;39.74;100433.23;1679543;82;20929;-62
2021/07/08 10:45:39;;;;;;;2.95;0.55;;;;;;;30.38;39.52;100433.06;1685533;82;21007;-60
2021/07/08 10:48:17;;;;;;;0.60;0.55;;;;;;;30.39;39.09;100429.77;1680115;82;21102;-59
2021/07/08 10:50:49;;;;;;;0.50;0.50;;;;;;;30.39;39.36;100427.84;1680699;82;21029;-62
2021/07/08 10:53:22;;;;;;;0.65;0.57;;;;;;;30.42;38.56;100423.33;1680185;82;20995;-61
2021/07/08 10:56:01;;;;;;;2.47;0.50;;;;;;;30.45;37.87;100422.09;1679322;82;21004;-58
2021/07/08 10:58:54;;;;;;;0.78;0.60;;;;;;;30.48;37.68;100426.73;1681043;82;20896;-59
2021/07/08 11:01:27;;;;;;;1.52;0.70;;;;;;;30.46;37.05;100419.63;1679802;82;21314;-61
2021/07/08 11:03:59;;;;;;;2.50;0.57;;;;;;;30.44;37.74;100424.53;1678565;82;22703;-61
2021/07/08 11:06:37;;;;;;;1.37;0.55;;;;;;;30.41;37.16;100420.20;1646418;84;21385;-61
2021/07/08 11:09:18;;;;;;;1.20;0.72;;;;;;;30.43;38.03;100413.08;1703798;82;20967;-61
2021/07/08 11:11:53;;;;;;;1.25;0.50;;;;;;;30.48;37.42;100411.45;1702670;82;20947;-59
2021/07/08 11:14:24;;;;;;;2.67;0.50;;;;;;;30.48;37.45;100410.59;1697199;82;21050;-62
2021/07/08 11:16:59;;;;;;;2.15;0.55;;;;;;;30.45;37.37;100406.82;1693643;82;21989;-62
2021/07/08 11:19:31;;;;;;;2.83;0.60;;;;;;;30.47;37.22;100414.42;1698973;82;21042;-61
2021/07/08 11:22:06;;;;;;;0.63;0.57;;;;;;;30.49;37.02;100410.94;1700748;82;21065;-60
2021/07/08 11:24:44;;;;;;;5.72;0.60;;;;;;;30.47;36.12;100408.86;1699580;82;20942;-59
2021/07/08 11:27:29;;;;;;;0.65;0.50;;;;;;;30.46;36.76;100409.91;1708753;82;20984;-63
2021/07/08 11:29:58;;;;;;;0.57;0.50;;;;;;;30.45;36.36;100405.43;1696281;83;22436;-62
2021/07/08 11:32:42;;;;;;;1.12;0.55;;;;;;;30.46;36.12;100403.83;1695061;83;21058;-63
2021/07/08 11:35:19;;;;;;;1.55;0.50;;;;;;;30.49;36.54;100397.05;1676016;84;21188;-63